createdAt,value
2022-12-25T00:00:20.416Z,100265.38
2022-12-25T00:07:39.255Z,100277.72
2022-12-25T00:14:59.024Z,100289.13
2022-12-25T00:22:17.343Z,100295.34
2022-12-25T00:29:35.783Z,100303.06
2022-12-25T00:36:55.759Z,100298.59
2022-12-25T00:44:15.016Z,100306.31
2022-12-25T00:51:33.663Z,100307.09
2022-12-25T00:58:53.314Z,100313.31
2022-12-25T01:06:13.070Z,100321.06
2022-12-25T01:13:32.942Z,100327.03
2022-12-25T01:20:53.012Z,100335.13
2022-12-25T01:28:11.626Z,100350.28
2022-12-25T01:35:29.960Z,100365.59
2022-12-25T01:42:49.847Z,100360.28
2022-12-25T01:50:09.372Z,100361.13
2022-12-25T01:57:29.099Z,100353.16
2022-12-25T02:04:53.034Z,100365.84
2022-12-25T02:12:13.676Z,100362.66
2022-12-25T02:19:53.529Z,100368.38
2022-12-25T02:27:28.512Z,100380.03
2022-12-25T02:34:51.983Z,100370.16
2022-12-25T02:42:11.877Z,100386.91
2022-12-25T02:49:48.917Z,100385.69
2022-12-25T02:57:28.095Z,100389.38
2022-12-25T03:05:03.623Z,100405.25
2022-12-25T03:12:36.702Z,100393.78
2022-12-25T03:20:13.418Z,100413.72
2022-12-25T03:27:35.194Z,100417.84
2022-12-25T03:35:17.138Z,100428.41
2022-12-25T03:42:56.117Z,100435.91
2022-12-25T03:50:35.450Z,100441.69
2022-12-25T03:58:12.519Z,100442.19
2022-12-25T04:05:48.508Z,100454.16
2022-12-25T04:13:25.740Z,100440.28
2022-12-25T04:21:01.923Z,100429.84
2022-12-25T04:28:38.863Z,100440.75
2022-12-25T04:36:12.528Z,100441.22
2022-12-25T04:43:35.485Z,100442.25
2022-12-25T04:50:53.724Z,100439.25
2022-12-25T04:58:12.146Z,100457.75
2022-12-25T05:05:31.898Z,100452.41
2022-12-25T05:12:51.950Z,100461.00
2022-12-25T05:20:10.369Z,100457.69
2022-12-25T05:27:29.992Z,100487.06
2022-12-25T05:34:48.207Z,100484.94
2022-12-25T05:42:07.014Z,100495.38
2022-12-25T05:49:27.507Z,100493.66
2022-12-25T05:56:45.830Z,100510.66
2022-12-25T06:04:10.185Z,100508.47
2022-12-25T06:11:32.041Z,100522.91
2022-12-25T06:18:53.136Z,100534.53
2022-12-25T06:26:13.258Z,100547.88
2022-12-25T06:33:36.088Z,100559.72
2022-12-25T06:40:54.397Z,100569.63
2022-12-25T06:48:12.796Z,100574.81
2022-12-25T06:55:32.356Z,100578.03
2022-12-25T07:02:51.204Z,100574.00
2022-12-25T07:10:10.627Z,100570.63
2022-12-25T07:17:30.345Z,100577.00
2022-12-25T07:24:48.829Z,100578.97
2022-12-25T07:32:07.429Z,100583.84
2022-12-25T07:39:27.211Z,100593.75
2022-12-25T07:46:45.440Z,100597.53
2022-12-25T07:54:03.809Z,100592.75
2022-12-25T08:01:25.659Z,100602.84
2022-12-25T08:08:44.011Z,100597.53
2022-12-25T08:16:03.911Z,100608.81
2022-12-25T08:23:23.682Z,100609.44
2022-12-25T08:30:52.603Z,100616.19
2022-12-25T08:38:10.987Z,100631.25
2022-12-25T08:45:35.016Z,100632.19
2022-12-25T08:52:53.725Z,100635.13
2022-12-25T09:00:13.315Z,100638.00
2022-12-25T09:07:33.687Z,100624.88
2022-12-25T09:14:52.122Z,100629.97
2022-12-25T09:22:10.294Z,100633.44
2022-12-25T09:29:29.988Z,100628.53
2022-12-25T09:36:48.315Z,100619.16
2022-12-25T09:44:09.578Z,100607.75
2022-12-25T09:51:30.922Z,100624.94
2022-12-25T09:58:49.555Z,100624.91
2022-12-25T10:06:19.870Z,100607.38
2022-12-25T10:13:54.065Z,100585.97
2022-12-25T10:21:14.817Z,100583.28
2022-12-25T10:28:37.459Z,100578.41
2022-12-25T10:35:57.143Z,100576.16
2022-12-25T10:43:20.019Z,100572.66
2022-12-25T10:50:44.209Z,100561.84
2022-12-25T10:58:03.993Z,100566.84
2022-12-25T11:05:26.845Z,100562.91
2022-12-25T11:12:46.441Z,100542.53
2022-12-25T11:20:25.825Z,100518.22
2022-12-25T11:27:47.724Z,100507.06
2022-12-25T11:35:14.498Z,100521.97
2022-12-25T11:42:35.853Z,100515.44
2022-12-25T11:50:00.716Z,100521.66
2022-12-25T11:57:21.379Z,100507.41
2022-12-25T12:04:43.523Z,100520.88
2022-12-25T12:12:06.137Z,100517.34
2022-12-25T12:19:28.961Z,100506.78
2022-12-25T12:26:49.173Z,100494.28
2022-12-25T12:34:07.907Z,100496.88
2022-12-25T12:41:43.749Z,100479.81
2022-12-25T12:49:10.622Z,100493.63
2022-12-25T12:56:30.234Z,100498.59
2022-12-25T13:04:28.820Z,100490.25
2022-12-25T13:11:49.094Z,100473.03
2022-12-25T13:19:09.287Z,100467.22
2022-12-25T13:26:27.864Z,100487.94
2022-12-25T13:33:51.175Z,100478.59
2022-12-25T13:41:27.905Z,100473.53
2022-12-25T13:48:58.789Z,100457.34
2022-12-25T13:56:17.950Z,100444.22
2022-12-25T14:03:37.919Z,100422.97
2022-12-25T14:10:58.394Z,100448.75
2022-12-25T14:18:17.808Z,100450.94
2022-12-25T14:25:43.523Z,100458.94
2022-12-25T14:33:03.829Z,100460.59
2022-12-25T14:40:26.962Z,100450.72
2022-12-25T14:47:52.222Z,100437.81
2022-12-25T14:55:20.912Z,100448.66
2022-12-25T15:02:42.205Z,100438.03
2022-12-25T15:10:36.547Z,100427.38
2022-12-25T15:17:40.179Z,100444.69
2022-12-25T15:25:02.301Z,100391.38
2022-12-25T15:32:22.449Z,100433.88
2022-12-25T15:39:42.265Z,100420.69
2022-12-25T15:47:02.854Z,100397.72
2022-12-25T15:54:21.264Z,100410.84
2022-12-25T16:01:41.154Z,100418.81
2022-12-25T16:08:59.610Z,100392.91
2022-12-25T16:16:18.068Z,100369.03
2022-12-25T16:23:39.227Z,100365.28
2022-12-25T16:30:57.627Z,100351.75
2022-12-25T16:38:16.206Z,100340.72
2022-12-25T16:45:39.641Z,100350.03
2022-12-25T16:52:57.910Z,100322.97
2022-12-25T17:00:17.060Z,100337.69
2022-12-25T17:07:37.547Z,100347.25
2022-12-25T17:14:55.994Z,100354.44
2022-12-25T17:22:16.103Z,100306.06
2022-12-25T17:29:35.792Z,100297.13
2022-12-25T17:36:54.453Z,100313.31
2022-12-25T17:44:13.310Z,100323.78
2022-12-25T17:51:33.162Z,100314.53
2022-12-25T17:58:53.063Z,100304.78
2022-12-25T18:06:13.396Z,100295.06
2022-12-25T18:13:33.630Z,100280.75
2022-12-25T18:20:54.746Z,100252.84
2022-12-25T18:28:13.619Z,100255.75
2022-12-25T18:35:33.386Z,100236.63
2022-12-25T18:42:59.368Z,100231.16
2022-12-25T18:50:21.558Z,100240.78
2022-12-25T18:57:41.238Z,100195.16
2022-12-25T19:04:59.719Z,100206.03
2022-12-25T19:12:18.884Z,100182.47
2022-12-25T19:19:39.124Z,100192.00
2022-12-25T19:26:57.433Z,100185.50
2022-12-25T19:34:16.480Z,100176.47
2022-12-25T19:41:36.418Z,100163.78
2022-12-25T19:48:55.717Z,100172.06
2022-12-25T19:56:14.031Z,100156.28
2022-12-25T20:03:34.974Z,100139.88
2022-12-25T20:10:55.633Z,100117.13
2022-12-25T20:18:15.485Z,100085.94
2022-12-25T20:25:35.296Z,100096.81
2022-12-25T20:32:53.679Z,100084.50
2022-12-25T20:40:19.296Z,100109.28
2022-12-25T20:47:39.165Z,100088.00
2022-12-25T20:54:57.575Z,100071.53
2022-12-25T21:02:34.342Z,100065.75
2022-12-25T21:09:55.901Z,100084.78
2022-12-25T21:17:14.340Z,100057.63
2022-12-25T21:24:32.679Z,100040.31
2022-12-25T21:32:10.169Z,100011.22
2022-12-25T21:39:28.539Z,100003.19
2022-12-25T21:46:46.777Z,100019.47
2022-12-25T21:54:07.131Z,100026.63
2022-12-25T22:01:25.385Z,100048.50
2022-12-25T22:08:44.492Z,100054.44
2022-12-25T22:16:23.981Z,100034.03
2022-12-25T22:23:42.524Z,100018.22
2022-12-25T22:31:06.028Z,100015.28
2022-12-25T22:38:24.396Z,100011.28
2022-12-25T22:45:42.590Z,99981.06
2022-12-25T22:53:02.329Z,99960.03
2022-12-25T23:00:20.911Z,99941.22
2022-12-25T23:07:39.152Z,99919.38
2022-12-25T23:14:59.381Z,99933.25
2022-12-25T23:22:34.935Z,99953.59
2022-12-25T23:29:53.314Z,99962.56
2022-12-25T23:37:13.548Z,99930.41
2022-12-25T23:44:31.869Z,99934.69
2022-12-25T23:51:50.325Z,99948.44
2022-12-25T23:59:10.215Z,99942.22
